createdAt,value
2022-08-19T00:01:28.587Z,13.60
2022-08-19T00:06:34.316Z,17.40
2022-08-19T00:11:44.751Z,16.70
2022-08-19T00:16:55.688Z,14.30
2022-08-19T00:22:08.098Z,18.80
2022-08-19T00:27:26.348Z,17.20
2022-08-19T00:32:51.867Z,18.40
2022-08-19T00:38:17.957Z,17.80
2022-08-19T00:43:44.018Z,17.20
2022-08-19T00:49:20.635Z,18.10
2022-08-19T00:54:47.820Z,17.70
2022-08-19T01:00:30.556Z,17.20
2022-08-19T01:05:47.611Z,17.60
2022-08-19T01:11:02.067Z,18.90
2022-08-19T01:16:17.104Z,17.20
2022-08-19T01:22:14.079Z,16.00
2022-08-19T01:28:09.878Z,17.90
2022-08-19T01:33:21.219Z,16.30
2022-08-19T01:38:44.280Z,19.70
2022-08-19T01:44:09.926Z,16.30
2022-08-19T01:49:32.298Z,16.60
2022-08-19T01:54:43.158Z,18.50
2022-08-19T01:59:51.376Z,19.10
2022-08-19T02:04:59.394Z,19.80
2022-08-19T02:10:19.953Z,22.10
2022-08-19T02:15:33.466Z,18.70
2022-08-19T02:21:02.742Z,18.40
2022-08-19T02:26:37.630Z,21.60
2022-08-19T02:31:49.100Z,19.30
2022-08-19T02:37:11.141Z,17.90
2022-08-19T02:42:24.030Z,20.40
2022-08-19T02:47:58.490Z,16.40
2022-08-19T02:53:16.493Z,19.40
2022-08-19T02:58:23.964Z,18.80
2022-08-19T03:03:43.543Z,21.30
2022-08-19T03:09:00.146Z,19.00
2022-08-19T03:14:13.845Z,20.20
2022-08-19T03:19:20.351Z,20.10
2022-08-19T03:24:34.348Z,18.50
2022-08-19T03:29:51.574Z,20.50
2022-08-19T03:35:23.997Z,18.80
2022-08-19T03:40:43.019Z,19.20
2022-08-19T03:46:16.465Z,21.40
2022-08-19T03:51:38.485Z,20.90
2022-08-19T03:56:49.273Z,18.90
2022-08-19T04:02:20.196Z,20.80
2022-08-19T04:07:26.342Z,17.90
2022-08-19T04:12:34.285Z,20.30
2022-08-19T04:17:37.643Z,17.70
2022-08-19T04:22:43.814Z,16.80
2022-08-19T04:27:52.303Z,13.30
2022-08-19T04:32:55.425Z,14.10
2022-08-19T04:37:58.652Z,16.70
2022-08-19T04:43:05.065Z,15.10
2022-08-19T04:48:26.584Z,18.10
2022-08-19T04:53:38.236Z,17.70
2022-08-19T04:58:49.450Z,15.50
2022-08-19T05:03:53.815Z,18.80
2022-08-19T05:08:59.665Z,15.00
2022-08-19T05:14:06.202Z,16.50
2022-08-19T05:19:33.616Z,17.20
2022-08-19T05:24:51.256Z,14.00
2022-08-19T05:30:01.411Z,16.00
2022-08-19T05:35:09.084Z,13.70
2022-08-19T05:40:12.559Z,12.60
2022-08-19T05:45:17.969Z,15.60
2022-08-19T05:50:23.534Z,17.10
2022-08-19T05:55:26.800Z,12.30
2022-08-19T06:00:32.341Z,12.80
2022-08-19T06:05:39.182Z,14.40
2022-08-19T06:10:52.538Z,14.60
2022-08-19T06:15:58.258Z,14.60
2022-08-19T06:21:04.665Z,11.40
2022-08-19T06:26:12.800Z,10.70
2022-08-19T06:31:27.234Z,13.40
2022-08-19T06:36:42.980Z,14.60
2022-08-19T06:41:56.815Z,13.50
2022-08-19T06:47:09.444Z,12.60
2022-08-19T06:52:15.532Z,11.80
2022-08-19T06:57:21.334Z,12.90
2022-08-19T07:02:27.507Z,11.30
2022-08-19T07:07:32.623Z,10.00
2022-08-19T07:12:38.339Z,13.10
2022-08-19T07:17:42.409Z,12.60
2022-08-19T07:22:48.979Z,14.20
2022-08-19T07:27:54.471Z,14.40
2022-08-19T07:32:58.317Z,12.30
2022-08-19T07:38:04.194Z,10.50
2022-08-19T07:43:14.056Z,11.70
2022-08-19T07:48:27.097Z,11.90
2022-08-19T07:53:36.704Z,11.70
2022-08-19T07:58:46.965Z,11.60
2022-08-19T08:04:11.289Z,8.70
2022-08-19T08:09:26.925Z,13.00
2022-08-19T08:14:52.410Z,11.80
2022-08-19T08:19:59.728Z,13.50
2022-08-19T08:25:20.650Z,12.70
2022-08-19T08:30:27.184Z,14.40
2022-08-19T08:35:35.987Z,13.40
2022-08-19T08:40:52.500Z,13.10
2022-08-19T08:46:31.276Z,12.10
2022-08-19T08:51:48.754Z,11.50
2022-08-19T08:57:12.178Z,9.50
2022-08-19T09:02:15.213Z,10.20
2022-08-19T09:07:47.517Z,12.20
2022-08-19T09:13:24.606Z,13.90
2022-08-19T09:18:43.167Z,8.80
2022-08-19T09:23:46.292Z,10.40
2022-08-19T09:28:55.778Z,14.30
2022-08-19T09:34:01.777Z,8.00
2022-08-19T09:39:14.796Z,14.50
2022-08-19T09:44:21.917Z,13.40
2022-08-19T09:49:25.409Z,11.20
2022-08-19T09:54:28.932Z,11.80
2022-08-19T09:59:33.380Z,14.70
2022-08-19T10:04:56.605Z,15.20
2022-08-19T10:09:59.703Z,11.90
2022-08-19T10:15:03.423Z,10.20
2022-08-19T10:20:07.659Z,10.20
2022-08-19T10:25:11.554Z,15.70
2022-08-19T10:30:14.771Z,17.00
2022-08-19T10:35:21.864Z,12.10
2022-08-19T10:40:26.626Z,12.90
2022-08-19T10:45:29.935Z,9.60
2022-08-19T10:50:51.874Z,11.50
2022-08-19T10:56:13.489Z,9.30
2022-08-19T11:01:19.415Z,11.40
2022-08-19T11:06:22.537Z,13.70
2022-08-19T11:11:25.900Z,11.60
2022-08-19T11:16:31.145Z,13.00
2022-08-19T11:21:40.378Z,11.80
2022-08-19T11:26:50.393Z,8.20
2022-08-19T11:31:54.596Z,15.40
2022-08-19T11:36:59.771Z,15.50
2022-08-19T11:42:23.957Z,11.10
2022-08-19T11:47:27.364Z,13.10
2022-08-19T11:52:30.676Z,12.80
2022-08-19T11:57:34.001Z,11.30
2022-08-19T12:02:37.166Z,9.90
2022-08-19T12:07:41.945Z,12.40
2022-08-19T12:12:47.453Z,10.80
2022-08-19T12:18:02.216Z,13.30
2022-08-19T12:23:11.072Z,9.80
2022-08-19T12:28:14.539Z,11.40
2022-08-19T12:33:18.404Z,11.80
2022-08-19T12:38:25.374Z,11.30
2022-08-19T12:43:28.879Z,12.70
2022-08-19T12:48:35.107Z,13.80
2022-08-19T12:53:39.283Z,11.60
2022-08-19T12:58:50.224Z,11.40
2022-08-19T13:03:56.038Z,10.90
2022-08-19T13:08:59.857Z,7.90
2022-08-19T13:14:04.953Z,12.30
2022-08-19T13:19:08.558Z,12.80
2022-08-19T13:24:11.617Z,12.10
2022-08-19T13:29:33.451Z,8.80
2022-08-19T13:34:38.063Z,10.50
2022-08-19T13:39:41.550Z,10.70
2022-08-19T13:44:47.344Z,11.50
2022-08-19T13:49:51.148Z,12.30
2022-08-19T13:54:54.972Z,10.60
2022-08-19T13:59:59.651Z,10.00
2022-08-19T14:05:02.860Z,11.70
2022-08-19T14:10:09.547Z,8.50
2022-08-19T14:15:14.482Z,12.10
2022-08-19T14:20:18.989Z,9.70
2022-08-19T14:25:27.437Z,9.60
2022-08-19T14:30:36.592Z,10.00
2022-08-19T14:35:50.365Z,7.00
2022-08-19T14:40:53.846Z,12.20
2022-08-19T14:46:00.928Z,8.80
2022-08-19T14:51:07.905Z,12.30
2022-08-19T14:56:19.022Z,9.40
2022-08-19T15:01:26.543Z,7.50
2022-08-19T15:06:32.988Z,10.90
2022-08-19T15:11:39.646Z,9.40
2022-08-19T15:16:42.931Z,10.80
2022-08-19T15:21:46.174Z,12.60
2022-08-19T15:26:49.557Z,10.70
2022-08-19T15:31:58.827Z,10.00
2022-08-19T15:37:04.669Z,9.60
2022-08-19T15:42:08.719Z,13.00
2022-08-19T15:47:15.259Z,10.80
2022-08-19T15:52:21.744Z,10.90
2022-08-19T15:57:27.509Z,9.40
2022-08-19T16:02:49.485Z,10.80
2022-08-19T16:07:57.247Z,11.60
2022-08-19T16:13:00.742Z,11.10
2022-08-19T16:18:04.370Z,9.40
2022-08-19T16:23:07.495Z,11.40
2022-08-19T16:28:13.600Z,8.80
2022-08-19T16:33:22.782Z,10.40
2022-08-19T16:38:27.879Z,10.80
2022-08-19T16:43:32.468Z,8.80
2022-08-19T16:48:43.293Z,11.50
2022-08-19T16:53:46.439Z,10.40
2022-08-19T16:58:50.655Z,11.90
2022-08-19T17:03:55.699Z,8.80
2022-08-19T17:09:02.382Z,10.70
2022-08-19T17:14:08.528Z,11.60
2022-08-19T17:19:11.744Z,9.80
2022-08-19T17:24:17.031Z,9.40
2022-08-19T17:29:20.109Z,9.70
2022-08-19T17:34:23.220Z,9.20
2022-08-19T17:39:26.462Z,11.50
2022-08-19T17:44:29.556Z,10.80
2022-08-19T17:49:35.228Z,11.80
2022-08-19T17:54:39.045Z,9.90
2022-08-19T17:59:42.143Z,12.80
2022-08-19T18:04:48.659Z,11.40
2022-08-19T18:09:54.088Z,12.00
2022-08-19T18:14:58.572Z,21.40
2022-08-19T18:20:02.580Z,10.40
2022-08-19T18:25:24.263Z,16.10
2022-08-19T18:30:34.281Z,10.80
2022-08-19T18:35:39.399Z,12.00
2022-08-19T18:41:00.923Z,9.50
2022-08-19T18:46:22.542Z,10.50
2022-08-19T18:51:30.178Z,11.20
2022-08-19T18:56:55.759Z,13.70
2022-08-19T19:02:00.517Z,12.50
2022-08-19T19:07:05.975Z,10.60
2022-08-19T19:12:11.506Z,12.60
2022-08-19T19:17:16.593Z,8.10
2022-08-19T19:22:23.073Z,10.40
2022-08-19T19:27:26.511Z,14.40
2022-08-19T19:32:39.434Z,9.70
2022-08-19T19:37:44.017Z,10.90
2022-08-19T19:42:48.199Z,9.50
2022-08-19T19:47:51.492Z,12.60
2022-08-19T19:52:55.355Z,9.70
2022-08-19T19:57:58.497Z,9.00
2022-08-19T20:03:02.474Z,8.60
2022-08-19T20:08:24.113Z,13.40
2022-08-19T20:13:27.231Z,9.10
2022-08-19T20:18:31.291Z,10.30
2022-08-19T20:23:35.312Z,8.80
2022-08-19T20:28:38.318Z,7.80
2022-08-19T20:33:47.583Z,10.60
2022-08-19T20:38:51.406Z,10.00
2022-08-19T20:43:54.512Z,10.60
2022-08-19T20:48:59.140Z,9.80
2022-08-19T20:54:02.657Z,9.70
2022-08-19T20:59:10.658Z,10.70
2022-08-19T21:04:13.828Z,11.70
2022-08-19T21:09:16.787Z,11.50
2022-08-19T21:14:20.560Z,8.90
2022-08-19T21:19:24.225Z,12.50
2022-08-19T21:24:31.707Z,14.10
2022-08-19T21:29:37.565Z,10.20
2022-08-19T21:34:41.507Z,10.50
2022-08-19T21:39:47.004Z,13.20
2022-08-19T21:44:52.722Z,8.40
2022-08-19T21:49:55.705Z,9.60
2022-08-19T21:54:58.787Z,11.30
2022-08-19T22:00:02.605Z,11.10
2022-08-19T22:05:06.605Z,10.40
2022-08-19T22:10:11.323Z,12.90
2022-08-19T22:15:15.543Z,7.70
2022-08-19T22:20:27.077Z,10.80
2022-08-19T22:25:35.648Z,10.20
2022-08-19T22:30:42.410Z,13.20
2022-08-19T22:35:47.513Z,7.60
2022-08-19T22:40:53.465Z,11.10
2022-08-19T22:45:58.805Z,10.60
2022-08-19T22:51:20.301Z,16.00
2022-08-19T22:56:23.746Z,10.50
2022-08-19T23:01:30.444Z,12.70
2022-08-19T23:06:36.346Z,14.50
2022-08-19T23:11:41.970Z,8.70
2022-08-19T23:16:51.098Z,11.40
2022-08-19T23:21:54.495Z,12.10
2022-08-19T23:27:16.266Z,11.80
2022-08-19T23:32:21.658Z,10.00
2022-08-19T23:37:25.639Z,12.20
2022-08-19T23:42:29.052Z,10.40
2022-08-19T23:47:32.007Z,16.30
2022-08-19T23:52:47.513Z,14.50
2022-08-19T23:57:50.946Z,13.40
